Terminal Aerodrome Forecast
Issued by NWS

Home | Current Version | Previous Version | Text Only | Print | Product List | Glossary On
Versions: 1 2 3 4 5 6 7 8 9 10 11 12 13 14 15 16 17 18 19 20 21 22 23 24 25 26 27
137
FTUS43 KDLH 101558 AAA
TAFHYR
TAF AMD
KHYR 101558Z 1016/1112 05007KT P6SM OVC020
     FM102100 06005KT P6SM BKN024
     FM102300 VRB02KT P6SM SCT020=

USA.gov is the U.S. government's official web portal to all federal, state and local government web resources and services.